Baltimore, Maryland
Traffic Map
Current Weather Conditions
Baltimore, Maryland
Few Clouds
Few Clouds
59°
Feels Like: 59°
Wind Chill: 59° Ceiling: Unl
Heat Index: 59° Visibility: 10mi
Dew Point: 34° Wind: 10mph
Humidity: 39% Direction: 300° (WNW)
Pressure: 30.07in Gusts: 0mph
Raw Report DataKBWI 172254Z 30009KT 10SM FEW070 15/01 A3007 RMK AO2 SLP180 T01500011
Traffic Incident Summary
Active as of:
Severity:
Category:
InformationThere was an issue retrieving the traffic information for this location. Please try a different location or try again shortly.
Advertisements